createdAt,value
2022-10-16T00:01:06.027Z,3.97
2022-10-16T00:03:33.889Z,2.20
2022-10-16T00:06:02.953Z,2.60
2022-10-16T00:08:30.987Z,2.23
2022-10-16T00:11:03.203Z,3.00
2022-10-16T00:13:33.131Z,5.47
2022-10-16T00:16:04.213Z,4.17
2022-10-16T00:18:36.342Z,3.60
2022-10-16T00:24:30.866Z,6.37
2022-10-16T00:26:58.741Z,3.90
2022-10-16T00:29:28.660Z,3.20
2022-10-16T00:31:56.519Z,3.13
2022-10-16T00:34:24.349Z,3.27
2022-10-16T00:36:52.421Z,2.53
2022-10-16T00:39:42.914Z,3.53
2022-10-16T00:42:18.731Z,2.30
2022-10-16T00:44:57.626Z,3.57
2022-10-16T00:47:29.828Z,2.73
2022-10-16T00:50:04.291Z,3.30
2022-10-16T00:53:12.562Z,2.60
2022-10-16T00:55:48.125Z,3.23
2022-10-16T00:58:16.023Z,1.63
2022-10-16T01:00:48.132Z,3.27
2022-10-16T01:03:47.181Z,1.40
2022-10-16T01:09:16.459Z,3.47
2022-10-16T01:12:02.601Z,2.43
2022-10-16T01:14:48.382Z,1.90
2022-10-16T01:17:21.740Z,2.77
2022-10-16T01:20:27.327Z,2.00
2022-10-16T01:23:18.658Z,3.37
2022-10-16T01:26:12.177Z,2.50
2022-10-16T01:29:24.074Z,1.00
2022-10-16T01:32:11.780Z,4.27
2022-10-16T01:34:44.984Z,5.00
2022-10-16T01:37:17.836Z,1.33
2022-10-16T01:39:50.072Z,1.97
2022-10-16T01:42:33.601Z,2.30
2022-10-16T01:45:04.884Z,1.73
2022-10-16T01:47:34.538Z,1.83
2022-10-16T01:50:05.696Z,1.20
2022-10-16T01:52:42.092Z,2.10
2022-10-16T01:55:15.883Z,1.50
2022-10-16T01:57:49.673Z,2.20
2022-10-16T02:00:23.317Z,0.80
2022-10-16T02:02:56.107Z,1.43
2022-10-16T02:05:31.301Z,2.40
2022-10-16T02:08:00.566Z,3.03
2022-10-16T02:10:32.649Z,2.93
2022-10-16T02:13:07.083Z,3.53
2022-10-16T02:15:34.993Z,1.80
2022-10-16T02:18:05.490Z,1.90
2022-10-16T02:20:38.842Z,2.00
2022-10-16T02:23:11.449Z,1.63
2022-10-16T02:25:42.252Z,3.07
2022-10-16T02:28:16.080Z,3.77
2022-10-16T02:30:47.883Z,1.50
2022-10-16T02:33:18.929Z,1.97
2022-10-16T02:35:49.494Z,1.27
2022-10-16T02:38:19.387Z,3.23
2022-10-16T02:40:48.632Z,2.17
2022-10-16T02:43:16.751Z,1.53
2022-10-16T02:45:44.659Z,3.07
2022-10-16T02:48:12.545Z,3.53
2022-10-16T02:50:41.826Z,2.57
2022-10-16T02:53:09.694Z,4.37
2022-10-16T02:55:37.556Z,4.97
2022-10-16T02:58:05.484Z,3.37
2022-10-16T03:00:33.347Z,2.50
2022-10-16T03:03:01.254Z,2.30
2022-10-16T03:05:29.128Z,3.67
2022-10-16T03:08:00.954Z,2.77
2022-10-16T03:10:29.065Z,1.57
2022-10-16T03:12:58.123Z,2.87
2022-10-16T03:15:26.851Z,1.57
2022-10-16T03:17:54.693Z,3.10
2022-10-16T03:20:22.542Z,3.20
2022-10-16T03:22:50.620Z,2.27
2022-10-16T03:25:20.362Z,3.97
2022-10-16T03:27:48.244Z,2.23
2022-10-16T03:30:16.321Z,3.80
2022-10-16T03:32:45.475Z,2.80
2022-10-16T03:35:13.361Z,3.40
2022-10-16T03:37:41.244Z,5.07
2022-10-16T03:40:10.006Z,4.07
2022-10-16T03:42:39.487Z,3.43
2022-10-16T03:45:08.248Z,2.13
2022-10-16T03:47:36.222Z,1.60
2022-10-16T03:50:04.604Z,3.87
2022-10-16T03:52:33.124Z,3.60
2022-10-16T03:55:01.501Z,3.67
2022-10-16T03:57:29.748Z,5.20
2022-10-16T04:00:01.580Z,4.60
2022-10-16T04:02:29.446Z,2.77
2022-10-16T04:04:57.675Z,2.40
2022-10-16T04:07:25.859Z,3.67
2022-10-16T04:09:54.292Z,2.00
2022-10-16T04:12:22.421Z,4.03
2022-10-16T04:14:50.296Z,2.53
2022-10-16T04:17:20.688Z,2.93
2022-10-16T04:19:48.743Z,2.67
2022-10-16T04:22:16.651Z,2.13
2022-10-16T04:24:44.636Z,3.20
2022-10-16T04:27:13.001Z,3.10
2022-10-16T04:29:40.845Z,2.03
2022-10-16T04:32:10.572Z,1.17
2022-10-16T04:34:41.694Z,2.57
2022-10-16T04:37:09.907Z,1.73
2022-10-16T04:39:37.762Z,1.77
2022-10-16T04:42:05.753Z,2.60
2022-10-16T04:44:33.610Z,3.43
2022-10-16T04:47:01.442Z,1.97
2022-10-16T04:49:29.231Z,2.60
2022-10-16T04:51:58.422Z,2.53
2022-10-16T04:54:26.274Z,3.97
2022-10-16T04:56:54.097Z,2.30
2022-10-16T04:59:24.359Z,1.77
2022-10-16T05:01:52.203Z,2.97
2022-10-16T05:04:20.118Z,8.50
2022-10-16T05:06:49.672Z,2.77
2022-10-16T05:09:18.946Z,4.40
2022-10-16T05:11:46.811Z,3.40
2022-10-16T05:14:14.639Z,3.37
2022-10-16T05:16:42.705Z,1.97
2022-10-16T05:19:28.066Z,1.30
2022-10-16T05:21:56.107Z,2.90
2022-10-16T05:24:25.393Z,2.67
2022-10-16T05:26:53.514Z,1.53
2022-10-16T05:29:21.469Z,3.53
2022-10-16T05:31:54.094Z,1.70
2022-10-16T05:34:22.348Z,1.37
2022-10-16T05:36:50.176Z,2.33
2022-10-16T05:39:18.382Z,0.97
2022-10-16T05:41:47.613Z,2.40
2022-10-16T05:48:19.336Z,1.37
2022-10-16T05:50:47.233Z,2.10
2022-10-16T05:53:15.050Z,2.87
2022-10-16T05:55:42.876Z,2.80
2022-10-16T05:58:14.090Z,1.37
2022-10-16T06:00:41.924Z,5.27
2022-10-16T06:03:10.196Z,2.10
2022-10-16T06:05:40.161Z,2.67
2022-10-16T06:08:07.987Z,4.37
2022-10-16T06:10:36.037Z,1.40
2022-10-16T06:13:03.906Z,4.50
2022-10-16T06:15:34.286Z,2.63
2022-10-16T06:18:02.086Z,2.63
2022-10-16T06:20:29.888Z,1.30
2022-10-16T06:22:57.746Z,3.70
2022-10-16T06:25:25.588Z,1.70
2022-10-16T06:27:53.492Z,2.90
2022-10-16T06:30:21.347Z,3.93
2022-10-16T06:32:50.833Z,3.97
2022-10-16T06:35:20.517Z,2.10
2022-10-16T06:37:50.884Z,1.67
2022-10-16T06:40:18.721Z,2.07
2022-10-16T06:42:46.539Z,1.60
2022-10-16T06:45:17.346Z,1.97
2022-10-16T06:47:45.179Z,1.40
2022-10-16T06:50:15.066Z,2.50
2022-10-16T06:52:43.775Z,2.87
2022-10-16T06:55:11.683Z,1.93
2022-10-16T06:57:46.820Z,2.23
2022-10-16T07:00:15.086Z,3.97
2022-10-16T07:02:44.383Z,3.50
2022-10-16T07:05:14.532Z,2.23
2022-10-16T07:07:56.089Z,3.40
2022-10-16T07:10:25.130Z,1.57
2022-10-16T07:12:53.663Z,3.47
2022-10-16T07:15:22.470Z,3.77
2022-10-16T07:17:50.334Z,2.30
2022-10-16T07:20:19.841Z,1.83
2022-10-16T07:22:47.751Z,2.87
2022-10-16T07:25:15.735Z,2.10
2022-10-16T07:27:43.645Z,3.87
2022-10-16T07:30:12.819Z,2.13
2022-10-16T07:32:48.565Z,2.53
2022-10-16T07:38:37.405Z,2.63
2022-10-16T07:41:16.097Z,4.87
2022-10-16T07:43:50.113Z,1.90
2022-10-16T07:46:48.503Z,4.07
2022-10-16T07:49:49.724Z,3.40
2022-10-16T07:52:19.047Z,3.30
2022-10-16T07:54:48.627Z,3.87
2022-10-16T07:57:21.076Z,4.00
2022-10-16T08:00:17.538Z,4.33
2022-10-16T08:05:58.838Z,3.90
2022-10-16T08:08:31.542Z,3.23
2022-10-16T08:11:14.346Z,2.43
2022-10-16T08:16:58.103Z,5.07
2022-10-16T08:19:33.826Z,3.20
2022-10-16T08:22:07.294Z,4.93
2022-10-16T08:24:50.259Z,3.03
2022-10-16T08:27:37.141Z,3.20
2022-10-16T08:30:07.691Z,2.77
2022-10-16T08:32:38.018Z,2.97
2022-10-16T08:35:09.473Z,4.47
2022-10-16T08:37:37.838Z,3.87
2022-10-16T08:40:19.491Z,3.33
2022-10-16T08:43:12.527Z,6.57
2022-10-16T08:49:47.475Z,5.10
2022-10-16T08:52:16.257Z,5.30
2022-10-16T08:54:48.653Z,4.47
2022-10-16T08:57:23.086Z,5.13
2022-10-16T09:00:11.623Z,5.90
2022-10-16T09:02:54.333Z,2.97
2022-10-16T09:05:44.036Z,6.73
2022-10-16T09:08:21.044Z,3.60
2022-10-16T09:11:01.287Z,4.37
2022-10-16T09:13:37.057Z,4.67
2022-10-16T09:19:22.890Z,6.70
2022-10-16T09:21:54.128Z,3.47
2022-10-16T09:24:29.343Z,6.80
2022-10-16T09:27:04.298Z,3.50
2022-10-16T09:29:33.463Z,6.17
2022-10-16T09:32:16.643Z,6.60
2022-10-16T09:34:54.441Z,4.90
2022-10-16T09:37:27.797Z,3.33
2022-10-16T09:40:16.352Z,3.67
2022-10-16T09:42:44.252Z,9.60
2022-10-16T09:45:25.907Z,7.37
2022-10-16T09:47:57.057Z,5.97
2022-10-16T09:50:30.167Z,4.83
2022-10-16T09:53:12.696Z,7.93
2022-10-16T09:55:51.957Z,5.47
2022-10-16T09:58:20.548Z,9.20
2022-10-16T10:00:58.769Z,7.30
2022-10-16T10:03:40.409Z,3.67
2022-10-16T10:06:26.477Z,4.70
2022-10-16T10:09:16.499Z,5.20
2022-10-16T10:11:54.005Z,7.83
2022-10-16T10:14:37.942Z,5.57
2022-10-16T10:17:30.963Z,10.23
2022-10-16T10:20:07.367Z,9.33
2022-10-16T10:22:46.680Z,8.70
2022-10-16T10:25:36.504Z,5.53
2022-10-16T10:28:28.440Z,6.33
2022-10-16T10:31:08.919Z,8.60
2022-10-16T10:33:49.322Z,5.07
2022-10-16T10:36:33.991Z,4.17
2022-10-16T10:39:05.355Z,7.53
2022-10-16T10:42:04.602Z,7.80
2022-10-16T10:44:53.452Z,6.93
2022-10-16T10:47:30.257Z,7.90
2022-10-16T10:50:09.750Z,4.47
2022-10-16T10:52:53.094Z,7.60
2022-10-16T10:55:26.989Z,6.30
2022-10-16T10:58:21.060Z,5.97
2022-10-16T11:01:03.355Z,10.13
2022-10-16T11:03:47.216Z,6.03
2022-10-16T11:06:25.324Z,7.33
2022-10-16T11:09:01.397Z,6.87
2022-10-16T11:11:39.038Z,6.83
2022-10-16T11:14:15.054Z,8.80
2022-10-16T11:16:57.750Z,5.23
2022-10-16T11:20:14.094Z,6.13
2022-10-16T11:22:51.147Z,10.40
2022-10-16T11:25:22.562Z,4.77
2022-10-16T11:27:56.582Z,5.40
2022-10-16T11:30:39.321Z,6.13
2022-10-16T11:33:24.863Z,5.53
2022-10-16T11:36:04.244Z,9.10
2022-10-16T11:41:50.858Z,5.40
2022-10-16T11:44:28.684Z,4.10
2022-10-16T11:47:39.773Z,4.53
2022-10-16T11:50:38.529Z,5.87
2022-10-16T11:53:17.963Z,6.03
2022-10-16T11:55:56.799Z,6.17
2022-10-16T11:58:35.572Z,6.70
2022-10-16T12:07:52.616Z,6.97
2022-10-16T12:10:33.220Z,6.37
2022-10-16T12:16:42.957Z,7.90
2022-10-16T12:19:18.334Z,6.00
2022-10-16T12:24:38.596Z,7.73
2022-10-16T12:27:29.138Z,7.27
2022-10-16T12:30:04.827Z,6.30
2022-10-16T12:32:46.415Z,6.17
2022-10-16T12:35:22.609Z,5.53
2022-10-16T12:37:50.888Z,6.20
2022-10-16T12:40:38.252Z,6.53
2022-10-16T12:43:37.321Z,5.43
2022-10-16T12:46:23.973Z,4.87
2022-10-16T12:49:09.177Z,3.50
2022-10-16T12:51:40.605Z,5.87
2022-10-16T12:54:16.638Z,6.67
2022-10-16T12:57:10.481Z,7.33
2022-10-16T12:59:56.445Z,5.73
2022-10-16T13:03:27.556Z,4.43
2022-10-16T13:06:30.902Z,5.30
2022-10-16T13:13:50.265Z,5.10
2022-10-16T13:16:28.241Z,6.73
2022-10-16T13:19:15.371Z,3.93
2022-10-16T13:21:55.308Z,5.70
2022-10-16T13:24:36.242Z,4.60
2022-10-16T13:27:15.294Z,4.70
2022-10-16T13:29:43.868Z,5.67
2022-10-16T13:32:26.140Z,6.13
2022-10-16T13:35:20.121Z,4.17
2022-10-16T13:38:07.908Z,6.57
2022-10-16T13:40:35.851Z,6.90
2022-10-16T13:43:03.917Z,6.80
2022-10-16T13:45:31.878Z,3.20
2022-10-16T13:48:10.942Z,3.60
2022-10-16T13:51:15.729Z,4.60
2022-10-16T13:53:44.632Z,4.27
2022-10-16T13:56:19.323Z,6.70
2022-10-16T13:58:50.656Z,5.00
2022-10-16T14:01:21.533Z,7.93
2022-10-16T14:03:53.840Z,6.27
2022-10-16T14:06:24.261Z,4.90
2022-10-16T14:09:02.009Z,5.57
2022-10-16T14:11:30.750Z,5.13
2022-10-16T14:14:01.226Z,5.67
2022-10-16T14:16:32.538Z,8.63
2022-10-16T14:19:04.418Z,6.23
2022-10-16T14:21:36.475Z,4.87
2022-10-16T14:24:14.234Z,7.03
2022-10-16T14:26:50.556Z,5.53
2022-10-16T14:29:21.162Z,5.40
2022-10-16T14:31:58.128Z,4.30
2022-10-16T14:34:28.474Z,8.50
2022-10-16T14:36:58.208Z,8.57
2022-10-16T14:39:27.679Z,3.63
2022-10-16T14:41:58.997Z,6.57
2022-10-16T14:44:31.902Z,4.97
2022-10-16T14:47:00.647Z,7.07
2022-10-16T14:49:29.273Z,4.83
2022-10-16T14:52:00.093Z,6.43
2022-10-16T14:54:30.667Z,7.17
2022-10-16T14:57:03.293Z,5.97
2022-10-16T14:59:37.183Z,6.07
2022-10-16T15:02:20.767Z,6.20
2022-10-16T15:04:50.488Z,5.73
2022-10-16T15:07:24.266Z,4.67
2022-10-16T15:09:52.612Z,3.70
2022-10-16T15:12:20.838Z,4.13
2022-10-16T15:14:49.749Z,7.10
2022-10-16T15:17:46.252Z,6.80
2022-10-16T15:20:28.525Z,5.23
2022-10-16T15:23:10.715Z,5.33
2022-10-16T15:25:45.812Z,8.13
2022-10-16T15:28:15.023Z,5.80
2022-10-16T15:30:50.004Z,5.30
2022-10-16T15:33:23.914Z,6.80
2022-10-16T15:35:55.350Z,4.83
2022-10-16T15:38:28.994Z,6.87
2022-10-16T15:40:58.102Z,4.50
2022-10-16T15:43:29.216Z,3.73
2022-10-16T15:46:17.907Z,7.40
2022-10-16T15:54:15.279Z,8.03
2022-10-16T15:56:46.550Z,6.70
2022-10-16T15:59:19.885Z,5.60
2022-10-16T16:01:48.010Z,10.03
2022-10-16T16:04:42.303Z,4.47
2022-10-16T16:07:10.213Z,4.20
2022-10-16T16:09:42.801Z,4.50
2022-10-16T16:12:33.913Z,6.53
2022-10-16T16:15:11.513Z,5.03
2022-10-16T16:17:41.645Z,7.00
2022-10-16T16:20:25.695Z,6.47
2022-10-16T16:25:48.078Z,8.17
2022-10-16T16:28:18.630Z,5.47
2022-10-16T16:31:25.444Z,7.20
2022-10-16T16:34:00.904Z,6.70
2022-10-16T16:36:31.011Z,5.33
2022-10-16T16:39:01.921Z,7.33
2022-10-16T16:41:34.972Z,5.50
2022-10-16T16:44:13.281Z,9.17
2022-10-16T16:46:43.538Z,9.83
2022-10-16T16:49:15.824Z,8.80
2022-10-16T16:51:44.108Z,6.90
2022-10-16T16:54:15.132Z,7.87
2022-10-16T16:56:45.607Z,6.73
2022-10-16T16:59:16.654Z,5.63
2022-10-16T17:04:45.045Z,8.93
2022-10-16T17:07:18.449Z,6.73
2022-10-16T17:09:48.474Z,8.73
2022-10-16T17:12:20.242Z,14.60
2022-10-16T17:14:48.146Z,8.37
2022-10-16T17:17:18.321Z,10.97
2022-10-16T17:19:48.405Z,8.20
2022-10-16T17:22:16.565Z,6.97
2022-10-16T17:28:02.120Z,5.60
2022-10-16T17:30:30.824Z,7.47
2022-10-16T17:33:00.457Z,7.00
2022-10-16T17:35:28.355Z,6.83
2022-10-16T17:37:57.367Z,5.97
2022-10-16T17:43:40.631Z,4.00
2022-10-16T17:46:25.623Z,6.27
2022-10-16T17:48:55.653Z,9.30
2022-10-16T17:51:27.399Z,7.63
2022-10-16T17:53:57.214Z,8.57
2022-10-16T17:56:26.380Z,6.03
2022-10-16T17:59:00.549Z,10.07
2022-10-16T18:01:31.221Z,8.90
2022-10-16T18:04:04.630Z,5.23
2022-10-16T18:06:35.785Z,6.40
2022-10-16T18:09:05.476Z,6.87
2022-10-16T18:11:34.381Z,5.60
2022-10-16T18:14:07.346Z,7.97
2022-10-16T18:16:37.035Z,6.30
2022-10-16T18:19:06.369Z,5.73
2022-10-16T18:21:35.377Z,8.07
2022-10-16T18:24:03.356Z,7.07
2022-10-16T18:26:34.349Z,6.07
2022-10-16T18:29:04.962Z,4.30
2022-10-16T18:31:34.462Z,5.77
2022-10-16T18:34:03.672Z,8.83
2022-10-16T18:36:35.672Z,6.77
2022-10-16T18:39:09.256Z,6.67
2022-10-16T18:41:38.353Z,4.57
2022-10-16T18:44:10.953Z,4.77
2022-10-16T18:46:39.101Z,8.07
2022-10-16T18:49:09.155Z,4.67
2022-10-16T18:51:44.575Z,6.23
2022-10-16T18:54:17.895Z,6.90
2022-10-16T18:56:55.267Z,5.10
2022-10-16T18:59:31.206Z,4.87
2022-10-16T19:02:03.073Z,12.23
2022-10-16T19:04:40.484Z,6.10
2022-10-16T19:07:11.124Z,4.37
2022-10-16T19:09:42.806Z,8.20
2022-10-16T19:12:18.236Z,8.57
2022-10-16T19:14:55.193Z,9.17
2022-10-16T19:20:32.320Z,6.43
2022-10-16T19:23:12.108Z,4.03
2022-10-16T19:25:52.896Z,8.43
2022-10-16T19:28:25.276Z,11.57
2022-10-16T19:34:09.730Z,6.00
2022-10-16T19:40:15.939Z,7.57
2022-10-16T19:42:45.460Z,7.10
2022-10-16T19:45:13.807Z,8.17
2022-10-16T19:47:48.686Z,6.67
2022-10-16T19:56:40.047Z,7.97
2022-10-16T19:59:12.084Z,10.63
2022-10-16T20:01:40.898Z,5.63
2022-10-16T20:04:10.315Z,5.97
2022-10-16T20:06:38.903Z,7.50
2022-10-16T20:09:08.109Z,7.20
2022-10-16T20:11:39.714Z,4.77
2022-10-16T20:14:13.092Z,7.30
2022-10-16T20:16:48.183Z,10.73
2022-10-16T20:19:17.828Z,6.40
2022-10-16T20:21:45.873Z,7.17
2022-10-16T20:24:34.111Z,6.20
2022-10-16T20:27:02.473Z,6.80
2022-10-16T20:29:30.470Z,5.93
2022-10-16T20:31:58.618Z,9.17
2022-10-16T20:34:28.084Z,7.10
2022-10-16T20:37:02.360Z,6.33
2022-10-16T20:39:30.499Z,7.70
2022-10-16T20:41:58.494Z,7.17
2022-10-16T20:44:26.756Z,7.97
2022-10-16T20:46:55.751Z,7.97
2022-10-16T20:49:39.397Z,7.60
2022-10-16T20:52:09.373Z,10.40
2022-10-16T20:54:37.471Z,5.23
2022-10-16T20:57:05.427Z,10.93
2022-10-16T20:59:33.414Z,8.83
2022-10-16T21:02:01.630Z,7.90
2022-10-16T21:04:29.845Z,8.73
2022-10-16T21:06:57.686Z,6.90
2022-10-16T21:09:27.035Z,6.83
2022-10-16T21:11:57.230Z,7.93
2022-10-16T21:14:25.092Z,4.97
2022-10-16T21:16:53.170Z,8.53
2022-10-16T21:19:23.410Z,7.83
2022-10-16T21:21:53.098Z,7.13
2022-10-16T21:24:20.962Z,9.93
2022-10-16T21:26:50.204Z,6.47
2022-10-16T21:29:19.152Z,8.87
2022-10-16T21:31:50.476Z,11.23
2022-10-16T21:34:29.867Z,4.33
2022-10-16T21:36:59.150Z,3.90
2022-10-16T21:39:27.066Z,4.73
2022-10-16T21:42:07.399Z,3.53
2022-10-16T21:44:35.644Z,4.20
2022-10-16T21:47:03.487Z,2.63
2022-10-16T21:49:31.452Z,6.33
2022-10-16T21:51:59.770Z,4.03
2022-10-16T21:54:40.852Z,3.90
2022-10-16T21:57:13.203Z,2.97
2022-10-16T21:59:44.933Z,4.10
2022-10-16T22:02:15.183Z,6.07
2022-10-16T22:04:43.154Z,6.10
2022-10-16T22:07:15.071Z,3.10
2022-10-16T22:09:44.470Z,3.63
2022-10-16T22:12:19.459Z,2.43
2022-10-16T22:14:47.926Z,3.47
2022-10-16T22:17:18.237Z,4.80
2022-10-16T22:19:46.904Z,3.00
2022-10-16T22:22:16.930Z,3.33
2022-10-16T22:24:45.672Z,7.30
2022-10-16T22:27:58.031Z,3.53
2022-10-16T22:30:25.838Z,3.77
2022-10-16T22:33:00.870Z,3.83
2022-10-16T22:35:33.100Z,5.73
2022-10-16T22:38:03.721Z,3.43
2022-10-16T22:40:46.025Z,4.07
2022-10-16T22:43:15.297Z,3.20
2022-10-16T22:45:43.214Z,3.70
2022-10-16T22:51:19.098Z,3.60
2022-10-16T22:53:54.903Z,6.03
2022-10-16T22:56:24.983Z,4.53
2022-10-16T22:59:17.850Z,4.93
2022-10-16T23:01:45.727Z,4.37
2022-10-16T23:04:14.176Z,4.33
2022-10-16T23:06:42.469Z,4.03
2022-10-16T23:09:11.972Z,4.77
2022-10-16T23:11:39.993Z,4.27
2022-10-16T23:14:15.401Z,4.90
2022-10-16T23:16:48.679Z,5.23
2022-10-16T23:19:39.584Z,5.80
2022-10-16T23:22:07.463Z,2.90
2022-10-16T23:27:17.944Z,5.53
2022-10-16T23:29:48.164Z,3.20
2022-10-16T23:32:17.346Z,2.13
2022-10-16T23:34:49.500Z,3.60
2022-10-16T23:37:17.364Z,3.20
2022-10-16T23:39:45.224Z,4.13
2022-10-16T23:42:13.072Z,2.93
2022-10-16T23:44:51.198Z,5.33
2022-10-16T23:47:32.291Z,5.43
2022-10-16T23:50:00.168Z,2.57
2022-10-16T23:52:28.016Z,3.10
2022-10-16T23:54:56.097Z,3.40
2022-10-16T23:57:29.868Z,3.30
